aviador You're here:

KEUG Decoded Metar

EUGENE in OR, USA
Report Time2017-08-24 00:54:00
UTC Time2017-08-24 01:12:35
Flight Rules vfr VFR
Wind070° at 04 kt
W.Decomp.*RWY 34: 1.1 kt HW 3.8 kt RCW
W.Rank070° ranks 31
Current wind is below 070° avg. (4.3)
Visibility9999 m
Phenomena:Haze
Clouds:Few 055 Hf
Scattered 065 Hf
Scattered 170 Hf
Expected CloudBase > 4,800 ft AGL from Temp-Dew spread
CeilingNone
Temp27°C (ISA +13)
Dew Point15°C (48% RH)
Heat Index27.3°C
QNH1014 hPa
Density Alt2,037 ft
Elevation374 ft
Report Wrong Elevation
Raw Report
KEUG 240054Z 07004KT 10SM FEW055 SCT065 SCT170 27/15 A2994 RMK AO2
SLP138 HZ SCT065 T02670150=

Extra information for KEUG:More info

Metar Taf Metar & Taf Last 4 Metars F.Rules Stats Wind Profile Meteogram Temp Stats Airport Information Weather charts Add Link Nearby VenuesMetar ALERT Operation Metar Decoded Social comments

AIRNAV info for KEUG